Nyctalus

  • Mensagens: 316
Citação de: AVHerald
A SATA Air Azores de Havilland Dash 8-200, registration CS-TRB performing flight SP-588 from Horta to Corvo (Portugal), landed on Corvo's runway 29 at 14:17L (14:19Z) but touched down hard on its left main gear and bounced. The aircraft touched down again, rolled out and taxied to the apron. No injuries are being reported, A post flight inspection revealed damage to the left main gear and fluid dripping from the left hand side.

The aircraft was unable to depart for the next sector SP-589 to Horta and subsequently ferried, with gear down, to Flores (Portugal). The aircraft is still on the ground there.

A replacement Dash 8-200 registration CS-TRC positioned to Corvo and performed SP-589 with a delay of 3.5 hours.

Ground observer ZiRo waiting for the outbound flight reported the aircraft landed hard on its left main gear only, bounced, touched down again and rolled out without further incident, then taxied to the apron. The flight SP-589 Corvo-Horta was cancelled due to the aircraft damage. CS-TRB departed for Flores at about 15:15L without retracting the gear.

Corvo features a runway 11/29 of 800 meters/2620 feet length.

No weather data are available for Corvo. Metars of the next Azores Island Flores about 12nm south of Corvo read:

Metars:
LPFL 111530Z 35012KT 320V020 9999 FEW020 17/09 Q1025=
LPFL 111500Z 35012KT 9999 FEW020 16/09 Q1025=
LPFL 111430Z 34012KT 300V010 9999 FEW019 16/09 Q1025=
LPFL 111400Z 35015G25KT 9999 FEW019 16/10 Q1025=
LPFL 111330Z 35013KT 310V010 9999 FEW019 16/09 Q1025=
LPFL 111300Z 35017KT 9999 FEW018 16/10 Q1025=
LPFL 111230Z 35016KT 9999 FEW018 16/10 Q1025=
LPFL 111200Z 34015KT 9999 FEW018 16/10 Q1024=

CS-TRB on short final (Photo: ZiRo):



CS-TRB on the ground (Photo: ZiRo):



Left main gear (Photo: ZiRo):



CS-TRB departing for the ferry flight (Photo: ZiRo):




Fonte: http://avherald.com/h?article=4b738690&opt=0


Resposta rápida

Com a resposta rápida pode escrever uma mensagem quando está a ver um tópico sem carregar uma nova página. Pode, ainda, usar o código BBC e os risonhos como usaria numa mensagem normal.

Aviso: este tópico não tem nenhuma mensagem nova há, pelo menos, 90 dias.
A não ser que tenha a certeza que quer responder, por favor, considere a hipótese de criar um novo tópico.

Nota: esta mensagem não irá aparecer até ter sido aprovada por um moderador.
Nome: Email:
Verificação:

 

Tópicos Relacionados

  Assunto / Iniciado por Respostas Última mensagem
25 Respostas
5714 Visualizações
Última mensagem 23 de Agosto 2014, 23:22:26
por ruialves
1 Respostas
931 Visualizações
Última mensagem 29 de Maio 2014, 12:06:57
por Spak
4 Respostas
1060 Visualizações
Última mensagem 19 de Novembro 2015, 00:19:20
por finhinho
1 Respostas
555 Visualizações
Última mensagem 06 de Setembro 2017, 08:47:10
por Flyz
26 Respostas
4080 Visualizações
Última mensagem 13 de Agosto 2018, 18:28:15
por MiguelRei

Total 62+0=62 ms, db 0 ms, php 62 ms